Time;durP1;ratioP1;P1;durP2;ratioP2;P2;SDS_P1;SDS_P2;PMS_P1;PMS_P2;Temp;Humidity;BMP_temperature;BMP_pressure;BME280_temperature;BME280_humidity;BME280_pressure;Samples;Min_cycle;Max_cycle;Signal;HPM_P1;HPM_P2
2023/09/06 00:00:27;;;;;;;;;20.33;17.67;;;;;22.98;88.13;101520.38;5108779;27;45353;-76
2023/09/06 00:02:53;;;;;;;;;18.33;16.00;;;;;22.87;88.77;101509.69;5112879;27;45526;-76
2023/09/06 00:05:18;;;;;;;;;24.33;17.00;;;;;22.93;88.81;101522.63;5113595;27;45313;-75
2023/09/06 00:07:47;;;;;;;;;15.00;14.00;;;;;22.92;89.56;101527.16;5102384;27;45263;-75
2023/09/06 00:10:15;;;;;;;;;17.33;15.67;;;;;22.83;90.65;101509.94;5106518;27;46448;-75
2023/09/06 00:12:41;;;;;;;;;20.00;17.33;;;;;22.87;89.95;101524.03;5102344;27;45338;-75
2023/09/06 00:15:10;;;;;;;;;22.00;17.67;;;;;22.88;91.78;101524.84;5109034;27;45275;-75
2023/09/06 00:17:37;;;;;;;;;17.67;16.67;;;;;22.77;90.95;101501.53;5108907;27;45456;-75
2023/09/06 00:20:09;;;;;;;;;16.67;16.67;;;;;22.78;91.78;101508.63;5112571;27;45346;-75
2023/09/06 00:22:35;;;;;;;;;18.00;17.00;;;;;22.83;92.53;101515.34;5113306;27;45384;-75
2023/09/06 00:25:00;;;;;;;;;15.33;14.33;;;;;22.82;93.46;101515.47;5105549;27;54128;-75
2023/09/06 00:27:25;;;;;;;;;20.00;16.00;;;;;22.69;93.37;101496.81;5105072;27;45617;-75
2023/09/06 00:29:51;;;;;;;;;21.00;18.33;;;;;22.70;93.04;101498.53;5106715;27;47360;-76
2023/09/06 00:32:16;;;;;;;;;18.67;15.67;;;;;22.76;92.65;101511.47;5114910;27;48673;-75
2023/09/06 00:34:41;;;;;;;;;16.67;16.67;;;;;22.71;91.96;101497.50;5108394;27;45339;-75
2023/09/06 00:37:09;;;;;;;;;20.67;18.67;;;;;22.73;92.28;101510.88;5105486;27;45344;-75
2023/09/06 00:39:34;;;;;;;;;22.67;17.33;;;;;22.73;92.48;101511.75;5113764;27;47959;-75
2023/09/06 00:42:00;;;;;;;;;20.33;18.00;;;;;22.71;93.65;101513.69;5108357;27;45437;-76
2023/09/06 00:44:25;;;;;;;;;18.67;16.00;;;;;22.68;93.36;101505.88;5117011;27;45314;-75
2023/09/06 00:46:51;;;;;;;;;22.67;18.67;;;;;22.68;94.06;101513.09;5117455;27;45969;-75
2023/09/06 00:49:16;;;;;;;;;16.33;15.00;;;;;22.65;94.58;101511.50;5106063;27;46055;-76
2023/09/06 00:51:42;;;;;;;;;18.67;18.33;;;;;22.60;94.32;101515.59;5100190;27;45353;-76
2023/09/06 00:54:07;;;;;;;;;13.67;13.00;;;;;22.53;93.93;101504.47;5109974;27;45326;-74
2023/09/06 00:56:33;;;;;;;;;11.67;11.67;;;;;22.49;94.65;101499.47;5108360;27;45333;-75
2023/09/06 00:59:01;;;;;;;;;18.33;15.33;;;;;22.49;94.93;101507.56;5101509;27;45418;-75
2023/09/06 01:01:26;;;;;;;;;14.33;13.33;;;;;22.41;95.29;101497.44;5114082;27;45411;-75
2023/09/06 01:03:51;;;;;;;;;17.00;17.00;;;;;22.51;95.56;101514.53;5108519;27;45544;-75
2023/09/06 01:06:28;;;;;;;;;18.67;17.67;;;;;22.49;96.09;101519.19;5114260;27;59666;-75
2023/09/06 01:09:00;;;;;;;;;22.67;18.67;;;;;22.38;95.81;101500.41;5110982;27;45515;-75
2023/09/06 01:11:27;;;;;;;;;18.00;17.00;;;;;22.42;96.74;101509.94;5112690;27;45444;-75
2023/09/06 01:13:59;;;;;;;;;20.00;18.00;;;;;22.42;97.31;101519.84;5105075;27;46449;-75
2023/09/06 01:16:32;;;;;;;;;18.33;16.67;;;;;22.39;97.32;101512.88;5114837;27;45377;-75
2023/09/06 01:18:59;;;;;;;;;14.33;13.00;;;;;22.39;96.90;101515.59;5111675;27;46385;-75
2023/09/06 01:21:29;;;;;;;;;17.33;15.67;;;;;22.35;97.52;101510.59;5111965;27;45518;-74
2023/09/06 01:23:56;;;;;;;;;20.33;18.67;;;;;22.35;98.10;101510.59;5104070;27;45290;-75
2023/09/06 01:26:22;;;;;;;;;16.00;14.00;;;;;22.25;98.58;101495.19;5100719;27;45545;-75
2023/09/06 01:28:49;;;;;;;;;19.33;18.33;;;;;22.16;97.82;101482.50;5108395;27;45268;-74
2023/09/06 01:31:15;;;;;;;;;13.00;12.00;;;;;22.26;99.19;101506.81;5111410;27;45324;-74
2023/09/06 01:33:41;;;;;;;;;13.33;11.00;;;;;22.13;97.93;101482.75;5110156;27;45343;-74
2023/09/06 01:36:06;;;;;;;;;15.33;14.33;;;;;22.23;98.26;101513.34;5117352;27;45486;-74
2023/09/06 01:38:32;;;;;;;;;16.33;16.33;;;;;22.18;100.00;101506.63;5106460;27;45438;-74
2023/09/06 01:40:59;;;;;;;;;14.33;14.33;;;;;22.18;98.96;101515.59;5101177;27;45639;-75
2023/09/06 01:43:24;;;;;;;;;17.00;17.00;;;;;22.20;99.35;101515.44;5114616;27;45558;-75
2023/09/06 01:45:52;;;;;;;;;17.33;15.00;;;;;22.18;99.98;101517.41;5120809;27;45648;-74
2023/09/06 01:48:19;;;;;;;;;17.33;15.67;;;;;22.07;100.00;101507.53;5114833;27;46430;-74
2023/09/06 01:50:44;;;;;;;;;17.67;16.33;;;;;22.14;100.00;101522.22;5112869;27;45475;-74
2023/09/06 01:53:10;;;;;;;;;17.67;13.00;;;;;22.09;100.00;101507.38;5103601;27;45458;-75
2023/09/06 01:55:35;;;;;;;;;14.33;12.00;;;;;22.05;100.00;101514.91;5119673;27;45631;-75
2023/09/06 01:58:03;;;;;;;;;18.00;16.00;;;;;22.00;100.00;101506.34;5114916;27;45963;-75
2023/09/06 02:00:28;;;;;;;;;18.00;14.00;;;;;22.06;100.00;101521.97;5120231;27;45485;-75
2023/09/06 02:02:58;;;;;;;;;17.33;14.00;;;;;22.01;100.00;101523.34;5125933;27;45307;-75
2023/09/06 02:05:24;;;;;;;;;15.67;14.00;;;;;22.02;100.00;101523.22;5114294;27;45417;-75
2023/09/06 02:07:50;;;;;;;;;13.67;13.67;;;;;22.01;100.00;101523.34;5117009;27;45340;-74
2023/09/06 02:10:16;;;;;;;;;16.67;13.33;;;;;21.97;100.00;101525.44;5114855;27;45458;-74
2023/09/06 02:12:41;;;;;;;;;17.00;16.33;;;;;21.97;100.00;101522.75;5107757;27;45381;-74
2023/09/06 02:15:08;;;;;;;;;12.67;12.00;;;;;21.90;100.00;101520.69;5114399;27;45409;-75
2023/09/06 02:17:35;;;;;;;;;14.00;14.00;;;;;21.94;100.00;101527.53;5110313;27;46023;-74
2023/09/06 02:20:12;;;;;;;;;17.67;15.33;;;;;21.92;100.00;101524.13;5104036;27;45354;-75
2023/09/06 02:22:39;;;;;;;;;16.33;13.67;;;;;21.84;100.00;101524.72;5104596;27;45536;-75
2023/09/06 02:25:06;;;;;;;;;16.33;16.33;;;;;21.89;100.00;101530.59;5103975;27;45302;-74
2023/09/06 02:27:31;;;;;;;;;19.00;17.00;;;;;21.68;100.00;101490.13;5102547;27;46320;-74
2023/09/06 02:29:57;;;;;;;;;15.50;14.00;;;;;21.82;100.00;101519.44;5100817;27;45495;-74
2023/09/06 02:32:22;;;;;;;;;16.67;15.67;;;;;21.85;100.00;101528.28;5102208;27;45356;-74
2023/09/06 02:34:48;;;;;;;;;15.67;13.00;;;;;21.81;100.00;101524.97;5100463;27;45454;-75
2023/09/06 02:37:13;;;;;;;;;18.33;17.00;;;;;21.78;100.00;101519.84;5098742;27;45402;-74
2023/09/06 02:39:38;;;;;;;;;17.67;16.33;;;;;21.78;100.00;101525.25;5100627;27;45445;-75
2023/09/06 02:42:05;;;;;;;;;14.67;14.67;;;;;21.77;100.00;101521.69;5104403;27;45629;-75
2023/09/06 02:44:30;;;;;;;;;17.67;15.33;;;;;21.63;100.00;101511.19;5105930;27;45463;-74
2023/09/06 02:46:55;;;;;;;;;18.00;14.67;;;;;21.71;100.00;101516.81;5102619;27;45574;-74
2023/09/06 02:49:20;;;;;;;;;15.67;14.00;;;;;21.68;100.00;101519.75;5116842;27;57236;-74
2023/09/06 02:51:47;;;;;;;;;16.33;16.33;;;;;21.70;100.00;101523.16;5108476;27;45511;-75
2023/09/06 02:54:17;;;;;;;;;16.00;16.00;;;;;21.60;100.00;101505.19;5101947;27;45327;-75
2023/09/06 02:56:45;;;;;;;;;20.00;15.33;;;;;21.65;100.00;101521.84;5114284;27;47000;-74
2023/09/06 02:59:14;;;;;;;;;16.67;15.67;;;;;21.62;100.00;101528.34;5102104;27;45296;-74
2023/09/06 03:01:44;;;;;;;;;12.33;11.33;;;;;21.58;100.00;101513.41;5099788;27;45263;-75
2023/09/06 03:04:13;;;;;;;;;17.00;13.67;;;;;21.57;100.00;101519.78;5106044;27;45419;-75
2023/09/06 03:06:39;;;;;;;;;17.00;14.67;;;;;21.55;100.00;101527.13;5114963;27;45614;-74
2023/09/06 03:09:08;;;;;;;;;15.67;12.67;;;;;21.50;100.00;101520.41;5108259;27;45373;-74
2023/09/06 03:11:33;;;;;;;;;14.33;14.00;;;;;21.51;100.00;101528.34;5106613;27;45570;-74
2023/09/06 03:13:58;;;;;;;;;17.33;12.67;;;;;21.49;100.00;101524.94;5108285;27;45283;-74
2023/09/06 03:16:24;;;;;;;;;18.00;15.33;;;;;21.49;100.00;101540.22;5109608;27;56142;-75
2023/09/06 03:18:51;;;;;;;;;11.33;11.33;;;;;21.43;100.00;101521.88;5098435;27;46352;-75
2023/09/06 03:21:17;;;;;;;;;16.67;13.67;;;;;21.42;100.00;101529.09;5107010;27;46961;-75
2023/09/06 03:23:44;;;;;;;;;15.00;12.33;;;;;21.41;100.00;101527.38;5100494;27;45411;-74
2023/09/06 03:26:10;;;;;;;;;17.33;16.00;;;;;21.38;100.00;101527.63;5105548;27;45941;-74
2023/09/06 03:28:42;;;;;;;;;16.67;16.67;;;;;21.31;100.00;101526.41;5099006;27;45504;-74
2023/09/06 03:31:12;;;;;;;;;14.33;13.00;;;;;21.20;100.00;101503.06;5116105;27;45445;-75
2023/09/06 03:33:41;;;;;;;;;14.00;12.67;;;;;21.32;100.00;101525.44;5104419;27;45745;-74
2023/09/06 03:36:09;;;;;;;;;15.67;15.33;;;;;21.29;100.00;101525.69;5109782;27;46079;-75
2023/09/06 03:38:36;;;;;;;;;14.67;14.67;;;;;21.23;100.00;101516.28;5120815;27;45401;-75
2023/09/06 03:41:02;;;;;;;;;15.33;15.33;;;;;21.26;100.00;101526.81;5119020;27;45399;-74
2023/09/06 03:43:32;;;;;;;;;13.67;13.67;;;;;21.22;100.00;101519.94;5111951;27;45463;-74
2023/09/06 03:45:58;;;;;;;;;13.00;13.00;;;;;21.23;100.00;101524.34;5118371;27;46876;-75
2023/09/06 03:48:30;;;;;;;;;14.00;13.67;;;;;21.21;100.00;101531.69;5120081;27;45347;-75
2023/09/06 03:50:59;;;;;;;;;15.33;15.33;;;;;21.18;100.00;101529.22;5115907;27;45502;-74
2023/09/06 03:53:26;;;;;;;;;16.00;13.33;;;;;21.09;100.00;101512.94;5106957;27;45473;-75
2023/09/06 03:56:00;;;;;;;;;15.00;13.00;;;;;21.15;100.00;101531.31;5112202;27;45327;-74
2023/09/06 03:58:27;;;;;;;;;18.67;15.67;;;;;21.11;100.00;101521.75;5108164;27;45390;-75
2023/09/06 04:00:52;;;;;;;;;19.00;16.00;;;;;21.07;100.00;101520.28;5115162;27;45472;-74
2023/09/06 04:03:19;;;;;;;;;17.00;16.00;;;;;21.09;100.00;101531.78;5120659;27;45512;-75
2023/09/06 04:05:45;;;;;;;;;18.67;14.33;;;;;21.06;100.00;101534.72;5119347;27;47209;-75
2023/09/06 04:08:11;;;;;;;;;15.67;15.33;;;;;21.07;100.00;101531.06;5105271;27;45365;-75
2023/09/06 04:10:38;;;;;;;;;18.00;18.00;;;;;21.08;100.00;101538.97;5109514;27;45318;-74
2023/09/06 04:13:08;;;;;;;;;21.67;17.00;;;;;21.10;100.00;101544.28;5112995;27;45422;-75
2023/09/06 04:15:37;;;;;;;;;17.33;17.33;;;;;21.11;100.00;101543.28;5109013;27;46209;-74
2023/09/06 04:18:05;;;;;;;;;18.00;18.00;;;;;21.06;100.00;101530.19;5113209;27;45610;-75
2023/09/06 04:20:35;;;;;;;;;21.00;18.00;;;;;21.09;100.00;101543.44;5119401;27;45734;-74
2023/09/06 04:23:04;;;;;;;;;17.67;14.67;;;;;21.09;100.00;101540.72;5112129;27;45507;-74
2023/09/06 04:25:33;;;;;;;;;22.67;17.67;;;;;21.09;100.00;101547.91;5114582;27;45658;-74
2023/09/06 04:27:59;;;;;;;;;20.00;16.67;;;;;21.04;100.00;101539.38;5114179;27;45419;-74
2023/09/06 04:30:28;;;;;;;;;15.33;15.33;;;;;21.04;100.00;101529.44;5111460;27;45449;-74
2023/09/06 04:32:59;;;;;;;;;22.67;16.33;;;;;21.00;100.00;101535.19;5116356;27;46071;-74
2023/09/06 04:35:42;;;;;;;;;15.33;15.33;;;;;21.01;100.00;101542.25;5105143;27;45304;-75
2023/09/06 04:38:09;;;;;;;;;16.00;13.67;;;;;20.91;100.00;101520.63;5112029;27;45392;-75
2023/09/06 04:40:35;;;;;;;;;17.00;16.00;;;;;20.98;100.00;101539.81;5113334;27;45506;-73
2023/09/06 04:43:00;;;;;;;;;20.00;17.00;;;;;20.87;100.00;101521.00;5112945;27;45404;-74
2023/09/06 04:45:25;;;;;;;;;19.67;18.33;;;;;20.85;100.00;101521.13;5119751;27;46624;-74
2023/09/06 04:47:51;;;;;;;;;16.00;16.00;;;;;20.88;100.00;101534.31;5112643;27;45316;-73
2023/09/06 04:50:16;;;;;;;;;18.00;16.00;;;;;20.90;100.00;101544.97;5108719;27;45443;-74
2023/09/06 04:52:52;;;;;;;;;17.67;16.33;;;;;20.82;100.00;101532.09;5105686;27;45641;-75
2023/09/06 04:55:19;;;;;;;;;14.33;14.33;;;;;20.82;100.00;101542.00;5118965;27;46932;-75
2023/09/06 04:57:46;;;;;;;;;16.00;16.00;;;;;20.73;100.00;101536.38;5118509;27;45293;-74
2023/09/06 05:00:23;;;;;;;;;15.00;15.00;;;;;20.65;100.00;101524.50;5112734;27;47014;-74
2023/09/06 05:02:50;;;;;;;;;18.67;16.33;;;;;20.73;100.00;101539.06;5111980;27;45602;-74
2023/09/06 05:05:15;;;;;;;;;16.33;16.00;;;;;20.76;100.00;101546.91;5115392;27;46402;-74
2023/09/06 05:07:41;;;;;;;;;17.00;15.00;;;;;20.75;100.00;101549.69;5110486;27;45714;-74
2023/09/06 05:10:09;;;;;;;;;14.67;14.00;;;;;20.73;100.00;101552.50;5102510;27;45875;-74
2023/09/06 05:12:34;;;;;;;;;17.33;17.00;;;;;20.72;100.00;101550.78;5107699;27;45355;-74
2023/09/06 05:15:01;;;;;;;;;14.33;14.33;;;;;20.69;100.00;101551.03;5116066;27;45510;-75
2023/09/06 05:17:26;;;;;;;;;19.67;19.67;;;;;20.68;100.00;101545.78;5100161;27;46374;-73
2023/09/06 05:19:52;;;;;;;;;17.67;15.67;;;;;20.66;100.00;101545.03;5104220;27;46293;-74
2023/09/06 05:22:18;;;;;;;;;16.33;16.33;;;;;20.57;100.00;101530.50;5111010;27;45387;-74
2023/09/06 05:24:45;;;;;;;;;16.67;15.67;;;;;20.68;100.00;101546.63;5113461;27;46067;-74
2023/09/06 05:27:10;;;;;;;;;18.33;13.67;;;;;20.65;100.00;101546.00;5108629;27;45416;-74
2023/09/06 05:29:36;;;;;;;;;19.33;16.33;;;;;20.68;100.00;101548.47;5115558;27;45322;-74
2023/09/06 05:32:01;;;;;;;;;16.33;15.33;;;;;20.61;100.00;101536.50;5108308;27;55274;-74
2023/09/06 05:34:29;;;;;;;;;20.33;16.33;;;;;20.68;100.00;101553.84;5103822;27;46111;-74
2023/09/06 05:36:55;;;;;;;;;18.67;16.00;;;;;20.59;100.00;101536.59;5105052;27;45353;-74
2023/09/06 05:39:20;;;;;;;;;16.33;14.67;;;;;20.63;100.00;101537.22;5115012;27;45398;-74
2023/09/06 05:41:50;;;;;;;;;15.33;12.67;;;;;20.69;100.00;101551.03;5113688;27;45375;-73
2023/09/06 05:44:15;;;;;;;;;18.00;15.00;;;;;20.68;100.00;101546.63;5104477;27;45986;-74
2023/09/06 05:46:41;;;;;;;;;14.33;14.00;;;;;20.71;100.00;101556.31;5100212;27;46223;-74
2023/09/06 05:49:08;;;;;;;;;21.33;16.67;;;;;20.66;100.00;101553.09;5107108;27;45676;-73
2023/09/06 05:51:33;;;;;;;;;15.67;15.67;;;;;20.70;100.00;101549.22;5105821;27;45466;-74
2023/09/06 05:54:00;;;;;;;;;20.33;17.67;;;;;20.76;100.00;101560.34;5114549;27;46196;-74
2023/09/06 05:56:25;;;;;;;;;16.00;13.67;;;;;20.69;100.00;101542.97;5109483;27;45315;-75
2023/09/06 05:58:51;;;;;;;;;18.33;15.33;;;;;20.85;100.00;101558.75;5106154;27;45967;-74
2023/09/06 06:01:17;;;;;;;;;19.33;17.67;;;;;20.89;100.00;101567.44;5103784;27;45619;-74
2023/09/06 06:03:43;;;;;;;;;13.00;13.00;;;;;20.91;100.00;101568.19;5103916;27;45577;-74
2023/09/06 06:06:10;;;;;;;;;18.00;16.67;;;;;20.92;100.00;101565.38;5109494;27;45468;-74
2023/09/06 06:08:41;;;;;;;;;18.33;16.67;;;;;21.00;100.00;101562.94;5109095;27;45434;-73
2023/09/06 06:11:08;;;;;;;;;17.00;15.33;;;;;20.98;100.00;101554.13;5107025;27;45364;-73
2023/09/06 06:13:33;;;;;;;;;14.33;14.00;;;;;21.11;100.00;101571.06;5105742;27;45419;-75
2023/09/06 06:15:58;;;;;;;;;18.00;15.67;;;;;21.14;100.00;101573.50;5102783;27;45446;-74
2023/09/06 06:18:25;;;;;;;;;20.33;16.00;;;;;21.02;100.00;101539.47;5111448;27;45405;-74
2023/09/06 06:20:52;;;;;;;;;15.00;13.67;;;;;21.28;100.00;101575.09;5102662;27;45517;-74
2023/09/06 06:23:17;;;;;;;;;15.00;13.67;;;;;21.23;100.00;101553.97;5105253;27;45426;-74
2023/09/06 06:25:42;;;;;;;;;15.33;13.33;;;;;21.41;100.00;101566.91;5104479;27;45490;-74
2023/09/06 06:28:08;;;;;;;;;13.00;13.00;;;;;21.57;100.00;101584.38;5105095;27;45276;-74
2023/09/06 06:30:33;;;;;;;;;12.00;12.00;;;;;21.66;100.00;101589.00;5115806;27;45490;-74
2023/09/06 06:33:00;;;;;;;;;13.67;13.00;;;;;21.74;100.00;101581.19;5106308;27;46321;-74
2023/09/06 06:35:25;;;;;;;;;12.67;11.33;;;;;21.87;100.00;101580.16;5111716;27;45347;-75
2023/09/06 06:37:51;;;;;;;;;13.67;13.00;;;;;21.83;100.00;101566.97;5104968;27;45359;-75
2023/09/06 06:40:16;;;;;;;;;13.00;13.00;;;;;22.02;100.00;101573.56;5101299;27;46986;-74
2023/09/06 06:42:43;;;;;;;;;12.33;12.33;;;;;22.15;100.00;101587.75;5112516;27;45923;-75
2023/09/06 06:45:09;;;;;;;;;14.67;12.67;;;;;22.25;100.00;101596.78;5121139;27;45496;-74
2023/09/06 06:47:34;;;;;;;;;15.67;11.00;;;;;22.25;100.00;101586.81;5111868;27;45308;-75
2023/09/06 06:50:03;;;;;;;;;12.00;11.00;;;;;22.38;100.00;101592.06;5109703;27;45508;-74
2023/09/06 06:52:30;;;;;;;;;20.67;16.33;;;;;22.39;99.82;101576.72;5115286;27;48116;-75
2023/09/06 06:54:56;;;;;;;;;16.00;12.00;;;;;22.46;99.61;101578.78;5113842;27;45525;-74
2023/09/06 06:57:21;;;;;;;;;15.00;12.00;;;;;22.62;97.82;101581.03;5110570;27;45587;-75
2023/09/06 06:59:47;;;;;;;;;10.67;9.00;;;;;22.65;96.41;101578.06;5103338;27;45641;-74
2023/09/06 07:02:13;;;;;;;;;13.33;11.67;;;;;22.81;96.43;101589.28;5104193;27;55887;-74
2023/09/06 07:04:39;;;;;;;;;18.33;12.00;;;;;22.77;95.33;101568.97;5111115;27;45360;-74
2023/09/06 07:07:05;;;;;;;;;10.67;10.67;;;;;22.96;94.14;101592.50;5131421;27;45497;-74
2023/09/06 07:09:31;;;;;;;;;14.00;12.00;;;;;23.02;95.00;101592.84;5114129;27;45963;-76
2023/09/06 07:11:56;;;;;;;;;13.00;11.00;;;;;23.11;92.86;101600.13;5104705;27;46205;-75
2023/09/06 07:14:22;;;;;;;;;9.00;9.00;;;;;23.12;93.13;101592.88;5121686;27;45306;-74
2023/09/06 07:16:48;;;;;;;;;13.33;11.67;;;;;23.23;91.90;101598.22;5110497;27;45216;-75
2023/09/06 07:19:13;;;;;;;;;14.67;13.00;;;;;23.32;91.01;101602.78;5118009;27;45466;-75
2023/09/06 07:21:38;;;;;;;;;13.00;11.67;;;;;23.24;89.34;101584.56;5105776;27;45556;-75
2023/09/06 07:24:04;;;;;;;;;15.00;11.00;;;;;23.45;89.36;101610.69;5110408;27;45499;-75
2023/09/06 07:26:29;;;;;;;;;16.00;12.67;;;;;23.50;88.17;101612.00;5115091;27;45282;-75
2023/09/06 07:28:54;;;;;;;;;10.00;9.00;;;;;23.46;87.27;101591.66;5112944;27;45217;-75
2023/09/06 07:31:20;;;;;;;;;12.67;10.67;;;;;23.61;89.25;101611.06;5110141;27;45610;-75
2023/09/06 07:33:46;;;;;;;;;11.33;10.67;;;;;23.61;89.31;101594.84;5118438;27;45316;-75
2023/09/06 07:36:13;;;;;;;;;9.00;9.00;;;;;23.73;89.39;101600.00;5112963;27;46046;-76
2023/09/06 07:38:38;;;;;;;;;13.67;12.00;;;;;23.80;89.12;101600.31;5109696;27;45443;-76
2023/09/06 07:41:07;;;;;;;;;11.00;10.00;;;;;23.96;87.00;101618.69;5104144;27;45368;-76
2023/09/06 07:43:35;;;;;;;;;13.00;11.67;;;;;23.99;84.53;101613.00;5109440;27;45533;-76
2023/09/06 07:46:02;;;;;;;;;11.33;11.33;;;;;24.11;86.53;101620.88;5109406;27;45335;-76
2023/09/06 07:48:31;;;;;;;;;10.33;9.67;;;;;24.18;86.38;101624.72;5111432;27;45401;-76
2023/09/06 07:50:58;;;;;;;;;11.33;9.67;;;;;24.24;86.05;101615.22;5108904;27;46372;-75
2023/09/06 07:53:26;;;;;;;;;12.00;11.00;;;;;24.35;83.93;101626.75;5107575;27;45413;-75
2023/09/06 07:55:53;;;;;;;;;12.67;11.33;;;;;24.45;82.76;101629.47;5112821;27;45483;-76
2023/09/06 07:58:18;;;;;;;;;12.00;10.33;;;;;24.47;83.89;101613.09;5118366;27;45504;-76
2023/09/06 08:00:44;;;;;;;;;9.33;9.00;;;;;24.57;82.04;101609.41;5104002;27;45435;-76
2023/09/06 08:03:10;;;;;;;;;11.67;9.00;;;;;24.70;81.63;101623.50;5103323;27;45648;-75
2023/09/06 08:05:36;;;;;;;;;15.33;13.00;;;;;24.84;79.43;101628.47;5112753;27;45401;-76
2023/09/06 08:08:02;;;;;;;;;16.33;10.67;;;;;24.98;81.36;101631.75;5119293;27;45361;-75
2023/09/06 08:10:28;;;;;;;;;10.33;10.33;;;;;25.08;79.86;101621.75;5115371;27;45652;-76
2023/09/06 08:12:54;;;;;;;;;15.67;11.00;;;;;25.21;80.99;101636.69;5103804;27;45303;-76
2023/09/06 08:15:19;;;;;;;;;13.67;9.33;;;;;25.30;82.53;101624.97;5109232;27;45520;-76
2023/09/06 08:17:47;;;;;;;;;12.00;12.00;;;;;25.38;79.30;101627.81;5108216;27;45488;-76
2023/09/06 08:20:15;;;;;;;;;11.00;10.00;;;;;25.55;78.55;101641.59;5103432;27;46442;-76
2023/09/06 08:22:41;;;;;;;;;11.67;10.67;;;;;25.66;78.42;101642.25;5113680;27;45384;-76
2023/09/06 08:25:07;;;;;;;;;12.00;12.00;;;;;25.77;77.10;101633.09;5117942;27;45422;-75
2023/09/06 08:27:32;;;;;;;;;14.00;10.33;;;;;25.79;74.19;101626.50;5119728;27;45487;-76
2023/09/06 08:29:58;;;;;;;;;13.67;11.00;;;;;25.92;73.74;101618.88;5110854;27;45515;-76
2023/09/06 08:32:23;;;;;;;;;11.33;10.33;;;;;26.00;74.81;101623.53;5114094;27;45470;-76
2023/09/06 08:34:49;;;;;;;;;13.00;12.00;;;;;26.12;71.77;101619.59;5119598;27;45479;-76
2023/09/06 08:37:14;;;;;;;;;11.00;10.00;;;;;26.22;74.44;101619.56;5116946;27;45721;-75
2023/09/06 08:39:40;;;;;;;;;11.00;10.67;;;;;26.41;72.83;101631.13;5109992;27;46064;-75
2023/09/06 08:42:06;;;;;;;;;10.00;8.33;;;;;26.51;71.10;101633.75;5100952;27;45376;-76
2023/09/06 08:44:32;;;;;;;;;13.33;9.33;;;;;26.62;68.43;101630.81;5108787;27;45279;-76
2023/09/06 08:47:02;;;;;;;;;8.67;8.00;;;;;26.69;72.62;101620.19;5112230;27;45593;-75
2023/09/06 08:49:27;;;;;;;;;9.00;9.00;;;;;26.87;69.52;101631.91;5110231;27;45458;-76
2023/09/06 08:51:55;;;;;;;;;13.00;9.00;;;;;26.99;67.83;101629.81;5115851;27;45462;-76
2023/09/06 08:54:23;;;;;;;;;10.00;9.33;;;;;27.10;68.46;101630.38;5118703;27;45364;-76
2023/09/06 08:56:50;;;;;;;;;10.67;8.00;;;;;27.20;67.84;101636.56;5117342;27;45592;-76
2023/09/06 08:59:17;;;;;;;;;10.33;9.00;;;;;27.29;66.77;101632.06;5115704;27;45389;-76
2023/09/06 09:01:42;;;;;;;;;14.33;11.00;;;;;27.23;64.59;101617.22;5107195;27;46025;-76
2023/09/06 09:04:09;;;;;;;;;14.67;12.67;;;;;27.32;67.01;101618.97;5119603;27;45702;-76
2023/09/06 09:06:34;;;;;;;;;13.67;11.00;;;;;27.47;66.03;101624.72;5110013;27;45747;-76
2023/09/06 09:09:17;;;;;;;;;13.00;12.33;;;;;27.56;66.44;101618.28;5116505;27;45936;-76
2023/09/06 09:11:49;;;;;;;;;9.00;6.00;;;;;27.66;65.65;101623.59;5119857;27;45379;-76
2023/09/06 09:14:25;;;;;;;;;9.33;7.33;;;;;27.77;64.69;101628.75;5118448;27;45659;-76
2023/09/06 09:16:55;;;;;;;;;10.00;7.33;;;;;27.70;63.54;101598.66;5114639;27;45531;-76
2023/09/06 09:19:23;;;;;;;;;8.67;8.67;;;;;27.81;63.02;101609.22;5108490;27;45400;-76
2023/09/06 09:21:55;;;;;;;;;11.33;10.33;;;;;27.97;62.56;101621.19;5116530;27;45572;-76
2023/09/06 09:24:28;;;;;;;;;10.33;9.67;;;;;28.08;62.64;101624.47;5116570;27;45454;-76
2023/09/06 09:26:56;;;;;;;;;10.33;8.67;;;;;28.13;63.57;101616.69;5108850;27;45524;-76
2023/09/06 09:29:22;;;;;;;;;10.00;9.33;;;;;28.26;60.88;101617.06;5109272;27;45675;-76
2023/09/06 09:31:48;;;;;;;;;10.33;9.33;;;;;28.33;61.40;101617.22;5103010;27;45489;-76
2023/09/06 09:34:13;;;;;;;;;9.67;7.00;;;;;28.45;61.71;101615.88;5107953;27;45540;-76
2023/09/06 09:36:39;;;;;;;;;12.67;9.33;;;;;28.54;59.81;101620.31;5103689;27;45441;-76
2023/09/06 09:39:09;;;;;;;;;6.33;6.33;;;;;28.59;61.24;101611.63;5108999;27;45528;-76
2023/09/06 09:41:35;;;;;;;;;8.00;7.67;;;;;28.58;59.56;101602.63;5111685;27;45398;-77
2023/09/06 09:44:14;;;;;;;;;10.67;7.67;;;;;28.69;60.87;101618.66;5107056;27;45267;-76
2023/09/06 09:46:46;;;;;;;;;13.00;10.00;;;;;28.82;57.39;101621.72;5113895;27;45364;-77
2023/09/06 09:49:12;;;;;;;;;9.33;9.33;;;;;28.85;57.63;101617.81;5108470;27;45429;-77
2023/09/06 09:51:39;;;;;;;;;9.00;7.67;;;;;28.87;60.16;101607.56;5113661;27;45375;-76
2023/09/06 09:54:06;;;;;;;;;10.67;7.67;;;;;28.96;58.99;101601.94;5110128;27;45498;-76
2023/09/06 09:56:37;;;;;;;;;10.67;9.33;;;;;28.95;58.62;101593.97;5110356;27;45419;-77
2023/09/06 09:59:03;;;;;;;;;9.67;8.00;;;;;29.13;57.99;101601.91;5104567;27;46373;-76
2023/09/06 10:01:33;;;;;;;;;7.00;7.00;;;;;29.22;59.88;101609.91;5107663;27;45449;-77
2023/09/06 10:04:03;;;;;;;;;8.33;8.00;;;;;29.29;58.42;101619.13;5109698;27;45630;-76
2023/09/06 10:06:31;;;;;;;;;6.00;6.00;;;;;29.32;56.39;101618.75;5109268;27;45554;-76
2023/09/06 10:08:59;;;;;;;;;8.33;7.67;;;;;29.35;58.04;101604.78;5108528;27;47005;-76
2023/09/06 10:11:26;;;;;;;;;8.67;8.00;;;;;29.43;58.00;101599.31;5114153;27;45474;-77
2023/09/06 10:13:53;;;;;;;;;5.67;5.67;;;;;29.48;55.99;101596.91;5098870;27;45280;-77
2023/09/06 10:16:21;;;;;;;;;11.33;9.00;;;;;29.56;57.82;101597.91;5100267;27;45640;-77
2023/09/06 10:18:47;;;;;;;;;9.67;9.67;;;;;29.50;55.42;101595.88;5116593;27;48615;-76
2023/09/06 10:21:14;;;;;;;;;9.67;8.00;;;;;29.63;57.50;101602.47;5106668;27;45627;-77
2023/09/06 10:23:46;;;;;;;;;12.33;8.67;;;;;29.68;57.69;101601.97;5106510;27;45394;-76
2023/09/06 10:26:11;;;;;;;;;11.67;9.00;;;;;29.70;57.42;101597.16;5114376;27;45773;-77
2023/09/06 10:28:37;;;;;;;;;4.67;4.33;;;;;29.74;56.84;101590.34;5113581;27;47046;-76
2023/09/06 10:31:07;;;;;;;;;10.33;7.00;;;;;29.73;56.61;101591.34;5108098;27;45502;-76
2023/09/06 10:33:41;;;;;;;;;9.33;9.33;;;;;29.82;57.64;101593.88;5101078;27;45910;-76
2023/09/06 10:36:12;;;;;;;;;8.33;7.67;;;;;29.79;58.06;101579.72;5101326;27;45494;-76
2023/09/06 10:38:54;;;;;;;;;10.33;10.00;;;;;29.93;56.08;101587.19;5115361;27;45544;-76
2023/09/06 10:41:21;;;;;;;;;10.33;9.00;;;;;29.90;56.20;101572.06;5103342;27;45492;-76
2023/09/06 10:43:58;;;;;;;;;8.00;8.00;;;;;30.00;57.06;101581.88;5105669;27;47124;-76
2023/09/06 10:46:27;;;;;;;;;8.00;8.00;;;;;30.01;55.82;101573.50;5113630;27;45466;-76
2023/09/06 10:49:22;;;;;;;;;12.67;10.00;;;;;30.06;57.05;101576.56;5111288;27;45631;-76
2023/09/06 10:52:03;;;;;;;;;10.67;10.67;;;;;30.07;56.93;101575.53;5099448;27;45413;-76
2023/09/06 10:54:37;;;;;;;;;9.67;9.67;;;;;30.06;56.21;101559.31;5109990;27;45286;-75
2023/09/06 10:57:05;;;;;;;;;13.67;11.00;;;;;30.04;56.76;101555.94;5125332;27;45430;-75
2023/09/06 10:59:31;;;;;;;;;9.67;9.67;;;;;30.12;54.82;101564.91;5105791;27;47303;-75
2023/09/06 11:02:06;;;;;;;;;10.67;9.33;;;;;30.07;55.94;101547.41;5113007;27;45499;-75
2023/09/06 11:04:32;;;;;;;;;11.67;9.67;;;;;30.16;54.96;101554.47;5114284;27;45739;-76
2023/09/06 11:06:58;;;;;;;;;10.67;9.33;;;;;30.17;55.82;101553.47;5108720;27;45352;-75
2023/09/06 11:09:25;;;;;;;;;11.00;9.67;;;;;30.26;56.06;101552.38;5100195;27;46145;-76